sensor_id;sensor_type;location;lat;lon;timestamp;P1;durP1;ratioP1;P2;durP2;ratioP2
5127;SDS011;2582;48.770;9.190;2022-07-23T00:00:18;6.67;;;6.07;;
5127;SDS011;2582;48.770;9.190;2022-07-23T00:02:45;7.00;;;5.63;;
5127;SDS011;2582;48.770;9.190;2022-07-23T00:05:10;6.23;;;5.73;;
5127;SDS011;2582;48.770;9.190;2022-07-23T00:07:36;6.80;;;6.20;;
5127;SDS011;2582;48.770;9.190;2022-07-23T00:10:03;9.40;;;5.80;;
5127;SDS011;2582;48.770;9.190;2022-07-23T00:12:29;6.03;;;5.53;;
5127;SDS011;2582;48.770;9.190;2022-07-23T00:14:54;6.97;;;6.27;;
5127;SDS011;2582;48.770;9.190;2022-07-23T00:17:20;5.30;;;4.90;;
5127;SDS011;2582;48.770;9.190;2022-07-23T00:19:46;5.60;;;5.20;;
5127;SDS011;2582;48.770;9.190;2022-07-23T00:22:11;5.20;;;4.80;;
5127;SDS011;2582;48.770;9.190;2022-07-23T00:24:37;5.40;;;5.00;;
5127;SDS011;2582;48.770;9.190;2022-07-23T00:27:02;5.40;;;4.90;;
5127;SDS011;2582;48.770;9.190;2022-07-23T00:29:28;5.27;;;4.87;;
5127;SDS011;2582;48.770;9.190;2022-07-23T00:31:54;8.07;;;4.90;;
5127;SDS011;2582;48.770;9.190;2022-07-23T00:34:20;5.00;;;4.57;;
5127;SDS011;2582;48.770;9.190;2022-07-23T00:36:45;4.80;;;4.30;;
5127;SDS011;2582;48.770;9.190;2022-07-23T00:39:11;5.00;;;4.50;;
5127;SDS011;2582;48.770;9.190;2022-07-23T00:41:36;4.67;;;4.30;;
5127;SDS011;2582;48.770;9.190;2022-07-23T00:44:21;5.80;;;5.27;;
5127;SDS011;2582;48.770;9.190;2022-07-23T00:46:50;5.33;;;4.83;;
5127;SDS011;2582;48.770;9.190;2022-07-23T00:49:21;5.43;;;5.03;;
5127;SDS011;2582;48.770;9.190;2022-07-23T00:51:48;5.93;;;5.33;;
5127;SDS011;2582;48.770;9.190;2022-07-23T00:54:15;5.60;;;5.10;;
5127;SDS011;2582;48.770;9.190;2022-07-23T00:56:45;5.60;;;5.10;;
5127;SDS011;2582;48.770;9.190;2022-07-23T00:59:12;5.30;;;4.90;;
5127;SDS011;2582;48.770;9.190;2022-07-23T01:01:38;5.60;;;5.10;;
5127;SDS011;2582;48.770;9.190;2022-07-23T01:04:04;5.27;;;4.87;;
5127;SDS011;2582;48.770;9.190;2022-07-23T01:06:31;6.10;;;5.60;;
5127;SDS011;2582;48.770;9.190;2022-07-23T01:09:02;5.80;;;4.17;;
5127;SDS011;2582;48.770;9.190;2022-07-23T01:11:28;6.47;;;5.97;;
5127;SDS011;2582;48.770;9.190;2022-07-23T01:13:56;5.30;;;4.90;;
5127;SDS011;2582;48.770;9.190;2022-07-23T01:16:21;4.77;;;4.37;;
5127;SDS011;2582;48.770;9.190;2022-07-23T01:18:47;5.10;;;4.70;;
5127;SDS011;2582;48.770;9.190;2022-07-23T01:21:13;5.10;;;4.70;;
5127;SDS011;2582;48.770;9.190;2022-07-23T01:23:42;5.10;;;4.70;;
5127;SDS011;2582;48.770;9.190;2022-07-23T01:26:07;5.40;;;4.90;;
5127;SDS011;2582;48.770;9.190;2022-07-23T01:28:33;5.70;;;5.20;;
5127;SDS011;2582;48.770;9.190;2022-07-23T01:30:58;4.77;;;4.47;;
5127;SDS011;2582;48.770;9.190;2022-07-23T01:33:24;4.77;;;4.37;;
5127;SDS011;2582;48.770;9.190;2022-07-23T01:35:50;5.70;;;5.20;;
5127;SDS011;2582;48.770;9.190;2022-07-23T01:38:15;5.40;;;5.00;;
5127;SDS011;2582;48.770;9.190;2022-07-23T01:40:41;5.00;;;4.50;;
5127;SDS011;2582;48.770;9.190;2022-07-23T01:43:06;5.30;;;4.80;;
5127;SDS011;2582;48.770;9.190;2022-07-23T01:45:32;4.43;;;4.10;;
5127;SDS011;2582;48.770;9.190;2022-07-23T01:47:57;5.13;;;4.63;;
5127;SDS011;2582;48.770;9.190;2022-07-23T01:50:23;5.43;;;4.80;;
5127;SDS011;2582;48.770;9.190;2022-07-23T01:52:49;5.70;;;5.13;;
5127;SDS011;2582;48.770;9.190;2022-07-23T01:55:14;5.70;;;5.20;;
5127;SDS011;2582;48.770;9.190;2022-07-23T01:57:40;4.83;;;4.43;;
5127;SDS011;2582;48.770;9.190;2022-07-23T02:00:05;5.63;;;5.23;;
5127;SDS011;2582;48.770;9.190;2022-07-23T02:02:32;5.90;;;5.40;;
5127;SDS011;2582;48.770;9.190;2022-07-23T02:04:57;5.20;;;4.80;;
5127;SDS011;2582;48.770;9.190;2022-07-23T02:07:23;5.17;;;4.77;;
5127;SDS011;2582;48.770;9.190;2022-07-23T02:09:48;5.60;;;4.73;;
5127;SDS011;2582;48.770;9.190;2022-07-23T02:12:14;5.60;;;5.10;;
5127;SDS011;2582;48.770;9.190;2022-07-23T02:14:39;5.60;;;5.10;;
5127;SDS011;2582;48.770;9.190;2022-07-23T02:17:05;5.70;;;5.20;;
5127;SDS011;2582;48.770;9.190;2022-07-23T02:19:31;6.10;;;5.60;;
5127;SDS011;2582;48.770;9.190;2022-07-23T02:21:57;5.60;;;5.10;;
5127;SDS011;2582;48.770;9.190;2022-07-23T02:24:22;4.70;;;4.30;;
5127;SDS011;2582;48.770;9.190;2022-07-23T02:26:48;5.30;;;4.90;;
5127;SDS011;2582;48.770;9.190;2022-07-23T02:29:14;7.20;;;4.87;;
5127;SDS011;2582;48.770;9.190;2022-07-23T02:31:39;5.87;;;5.47;;
5127;SDS011;2582;48.770;9.190;2022-07-23T02:34:05;4.90;;;4.60;;
5127;SDS011;2582;48.770;9.190;2022-07-23T02:36:31;5.17;;;4.77;;
5127;SDS011;2582;48.770;9.190;2022-07-23T02:38:57;5.67;;;5.17;;
5127;SDS011;2582;48.770;9.190;2022-07-23T02:41:23;4.90;;;4.50;;
5127;SDS011;2582;48.770;9.190;2022-07-23T02:43:49;4.90;;;4.50;;
5127;SDS011;2582;48.770;9.190;2022-07-23T02:46:15;5.17;;;4.77;;
5127;SDS011;2582;48.770;9.190;2022-07-23T02:48:40;4.90;;;4.60;;
5127;SDS011;2582;48.770;9.190;2022-07-23T02:51:06;5.30;;;4.87;;
5127;SDS011;2582;48.770;9.190;2022-07-23T02:53:31;5.33;;;4.80;;
5127;SDS011;2582;48.770;9.190;2022-07-23T02:55:57;5.87;;;5.37;;
5127;SDS011;2582;48.770;9.190;2022-07-23T02:58:22;6.37;;;5.07;;
5127;SDS011;2582;48.770;9.190;2022-07-23T03:00:50;4.90;;;4.50;;
5127;SDS011;2582;48.770;9.190;2022-07-23T03:03:15;5.40;;;5.00;;
5127;SDS011;2582;48.770;9.190;2022-07-23T03:05:41;4.90;;;4.50;;
5127;SDS011;2582;48.770;9.190;2022-07-23T03:08:06;6.13;;;5.63;;
5127;SDS011;2582;48.770;9.190;2022-07-23T03:10:32;6.30;;;5.80;;
5127;SDS011;2582;48.770;9.190;2022-07-23T03:12:57;5.20;;;4.80;;
5127;SDS011;2582;48.770;9.190;2022-07-23T03:15:23;5.77;;;5.27;;
5127;SDS011;2582;48.770;9.190;2022-07-23T03:17:49;5.00;;;4.60;;
5127;SDS011;2582;48.770;9.190;2022-07-23T03:20:14;5.60;;;5.10;;
5127;SDS011;2582;48.770;9.190;2022-07-23T03:22:40;5.57;;;5.17;;
5127;SDS011;2582;48.770;9.190;2022-07-23T03:25:05;6.20;;;5.70;;
5127;SDS011;2582;48.770;9.190;2022-07-23T03:27:31;6.10;;;5.60;;
5127;SDS011;2582;48.770;9.190;2022-07-23T03:29:57;5.43;;;5.03;;
5127;SDS011;2582;48.770;9.190;2022-07-23T03:32:24;7.87;;;6.30;;
5127;SDS011;2582;48.770;9.190;2022-07-23T03:34:50;5.67;;;5.27;;
5127;SDS011;2582;48.770;9.190;2022-07-23T03:37:16;6.13;;;5.73;;
5127;SDS011;2582;48.770;9.190;2022-07-23T03:39:43;5.50;;;5.10;;
5127;SDS011;2582;48.770;9.190;2022-07-23T03:42:09;5.67;;;5.17;;
5127;SDS011;2582;48.770;9.190;2022-07-23T03:44:34;5.57;;;5.10;;
5127;SDS011;2582;48.770;9.190;2022-07-23T03:47:01;5.90;;;5.30;;
5127;SDS011;2582;48.770;9.190;2022-07-23T03:49:28;6.70;;;5.50;;
5127;SDS011;2582;48.770;9.190;2022-07-23T03:51:53;6.17;;;5.67;;
5127;SDS011;2582;48.770;9.190;2022-07-23T03:54:19;6.40;;;5.90;;
5127;SDS011;2582;48.770;9.190;2022-07-23T03:56:44;6.10;;;5.50;;
5127;SDS011;2582;48.770;9.190;2022-07-23T03:59:10;6.37;;;5.73;;
5127;SDS011;2582;48.770;9.190;2022-07-23T04:01:36;7.03;;;6.40;;
5127;SDS011;2582;48.770;9.190;2022-07-23T04:04:02;6.93;;;6.43;;
5127;SDS011;2582;48.770;9.190;2022-07-23T04:06:28;6.73;;;6.13;;
5127;SDS011;2582;48.770;9.190;2022-07-23T04:08:54;6.77;;;6.17;;
5127;SDS011;2582;48.770;9.190;2022-07-23T04:11:19;6.53;;;6.03;;
5127;SDS011;2582;48.770;9.190;2022-07-23T04:13:45;6.30;;;5.80;;
5127;SDS011;2582;48.770;9.190;2022-07-23T04:16:11;6.83;;;6.23;;
5127;SDS011;2582;48.770;9.190;2022-07-23T04:18:37;6.63;;;6.03;;
5127;SDS011;2582;48.770;9.190;2022-07-23T04:21:03;13.70;;;6.50;;
5127;SDS011;2582;48.770;9.190;2022-07-23T04:23:28;5.67;;;5.17;;
5127;SDS011;2582;48.770;9.190;2022-07-23T04:25:54;6.63;;;6.07;;
5127;SDS011;2582;48.770;9.190;2022-07-23T04:28:19;6.40;;;5.90;;
5127;SDS011;2582;48.770;9.190;2022-07-23T04:30:45;5.83;;;5.33;;
5127;SDS011;2582;48.770;9.190;2022-07-23T04:33:11;7.23;;;6.53;;
5127;SDS011;2582;48.770;9.190;2022-07-23T04:35:36;7.07;;;6.47;;
5127;SDS011;2582;48.770;9.190;2022-07-23T04:38:02;6.13;;;5.73;;
5127;SDS011;2582;48.770;9.190;2022-07-23T04:40:29;6.73;;;5.93;;
5127;SDS011;2582;48.770;9.190;2022-07-23T04:42:54;6.70;;;6.20;;
5127;SDS011;2582;48.770;9.190;2022-07-23T04:45:20;6.93;;;6.23;;
5127;SDS011;2582;48.770;9.190;2022-07-23T04:47:46;7.20;;;6.60;;
5127;SDS011;2582;48.770;9.190;2022-07-23T04:50:12;6.50;;;6.00;;
5127;SDS011;2582;48.770;9.190;2022-07-23T04:52:37;6.60;;;6.00;;
5127;SDS011;2582;48.770;9.190;2022-07-23T04:55:03;7.43;;;6.77;;
5127;SDS011;2582;48.770;9.190;2022-07-23T04:57:29;6.53;;;5.87;;
5127;SDS011;2582;48.770;9.190;2022-07-23T04:59:55;6.63;;;6.13;;
5127;SDS011;2582;48.770;9.190;2022-07-23T05:02:20;6.47;;;6.00;;
5127;SDS011;2582;48.770;9.190;2022-07-23T05:04:46;5.80;;;5.40;;
5127;SDS011;2582;48.770;9.190;2022-07-23T05:07:12;5.90;;;5.37;;
5127;SDS011;2582;48.770;9.190;2022-07-23T05:09:37;5.90;;;5.50;;
5127;SDS011;2582;48.770;9.190;2022-07-23T05:12:03;6.40;;;5.90;;
5127;SDS011;2582;48.770;9.190;2022-07-23T05:14:29;6.17;;;5.60;;
5127;SDS011;2582;48.770;9.190;2022-07-23T05:16:55;6.60;;;6.00;;
5127;SDS011;2582;48.770;9.190;2022-07-23T05:19:21;6.40;;;5.80;;
5127;SDS011;2582;48.770;9.190;2022-07-23T05:21:47;6.73;;;6.13;;
5127;SDS011;2582;48.770;9.190;2022-07-23T05:24:12;6.50;;;5.93;;
5127;SDS011;2582;48.770;9.190;2022-07-23T05:26:38;6.23;;;5.83;;
5127;SDS011;2582;48.770;9.190;2022-07-23T05:29:03;7.30;;;6.70;;
5127;SDS011;2582;48.770;9.190;2022-07-23T05:31:29;6.27;;;5.77;;
5127;SDS011;2582;48.770;9.190;2022-07-23T05:33:55;7.10;;;6.40;;
5127;SDS011;2582;48.770;9.190;2022-07-23T05:36:20;6.17;;;5.60;;
5127;SDS011;2582;48.770;9.190;2022-07-23T05:38:46;7.80;;;6.63;;
5127;SDS011;2582;48.770;9.190;2022-07-23T05:41:11;6.83;;;6.23;;
5127;SDS011;2582;48.770;9.190;2022-07-23T05:43:37;7.10;;;6.40;;
5127;SDS011;2582;48.770;9.190;2022-07-23T05:46:03;6.80;;;6.30;;
5127;SDS011;2582;48.770;9.190;2022-07-23T05:48:28;7.50;;;6.90;;
5127;SDS011;2582;48.770;9.190;2022-07-23T05:50:54;7.80;;;6.80;;
5127;SDS011;2582;48.770;9.190;2022-07-23T05:53:20;6.93;;;6.10;;
5127;SDS011;2582;48.770;9.190;2022-07-23T05:55:45;6.83;;;6.33;;
5127;SDS011;2582;48.770;9.190;2022-07-23T05:58:11;6.90;;;6.30;;
5127;SDS011;2582;48.770;9.190;2022-07-23T06:00:37;6.50;;;6.00;;
5127;SDS011;2582;48.770;9.190;2022-07-23T06:03:02;7.17;;;6.47;;
5127;SDS011;2582;48.770;9.190;2022-07-23T06:05:28;6.40;;;5.90;;
5127;SDS011;2582;48.770;9.190;2022-07-23T06:07:54;7.13;;;5.80;;
5127;SDS011;2582;48.770;9.190;2022-07-23T06:10:19;6.13;;;5.63;;
5127;SDS011;2582;48.770;9.190;2022-07-23T06:12:45;7.07;;;6.47;;
5127;SDS011;2582;48.770;9.190;2022-07-23T06:15:11;6.57;;;6.07;;
5127;SDS011;2582;48.770;9.190;2022-07-23T06:17:37;6.10;;;5.60;;
5127;SDS011;2582;48.770;9.190;2022-07-23T06:20:07;6.87;;;6.27;;
5127;SDS011;2582;48.770;9.190;2022-07-23T06:22:34;6.20;;;5.70;;
5127;SDS011;2582;48.770;9.190;2022-07-23T06:27:28;8.23;;;7.50;;
5127;SDS011;2582;48.770;9.190;2022-07-23T06:29:53;7.67;;;7.07;;
5127;SDS011;2582;48.770;9.190;2022-07-23T06:32:19;6.80;;;6.20;;
5127;SDS011;2582;48.770;9.190;2022-07-23T06:34:45;7.87;;;7.03;;
5127;SDS011;2582;48.770;9.190;2022-07-23T06:37:11;7.53;;;6.83;;
5127;SDS011;2582;48.770;9.190;2022-07-23T06:39:36;7.10;;;6.50;;
5127;SDS011;2582;48.770;9.190;2022-07-23T06:42:02;7.07;;;6.47;;
5127;SDS011;2582;48.770;9.190;2022-07-23T06:44:28;7.47;;;6.87;;
5127;SDS011;2582;48.770;9.190;2022-07-23T06:46:54;7.30;;;6.60;;
5127;SDS011;2582;48.770;9.190;2022-07-23T06:49:19;8.07;;;7.30;;
5127;SDS011;2582;48.770;9.190;2022-07-23T06:51:45;7.37;;;6.67;;
5127;SDS011;2582;48.770;9.190;2022-07-23T06:54:11;6.67;;;5.70;;
5127;SDS011;2582;48.770;9.190;2022-07-23T06:56:36;7.17;;;6.47;;
5127;SDS011;2582;48.770;9.190;2022-07-23T06:59:02;7.47;;;6.87;;
5127;SDS011;2582;48.770;9.190;2022-07-23T07:01:28;6.53;;;6.03;;
5127;SDS011;2582;48.770;9.190;2022-07-23T07:03:54;6.93;;;6.33;;
5127;SDS011;2582;48.770;9.190;2022-07-23T07:06:19;7.00;;;6.40;;
5127;SDS011;2582;48.770;9.190;2022-07-23T07:08:45;7.23;;;6.63;;
5127;SDS011;2582;48.770;9.190;2022-07-23T07:11:10;7.53;;;6.83;;
5127;SDS011;2582;48.770;9.190;2022-07-23T07:13:36;6.80;;;6.20;;
5127;SDS011;2582;48.770;9.190;2022-07-23T07:16:03;8.20;;;7.10;;
5127;SDS011;2582;48.770;9.190;2022-07-23T07:18:29;7.00;;;6.40;;
5127;SDS011;2582;48.770;9.190;2022-07-23T07:20:55;7.37;;;6.67;;
5127;SDS011;2582;48.770;9.190;2022-07-23T07:23:21;6.93;;;6.20;;
5127;SDS011;2582;48.770;9.190;2022-07-23T07:25:47;6.93;;;6.33;;
5127;SDS011;2582;48.770;9.190;2022-07-23T07:28:13;7.70;;;7.00;;
5127;SDS011;2582;48.770;9.190;2022-07-23T07:30:38;6.80;;;6.30;;
5127;SDS011;2582;48.770;9.190;2022-07-23T07:33:04;6.67;;;6.17;;
5127;SDS011;2582;48.770;9.190;2022-07-23T07:35:29;7.47;;;6.70;;
5127;SDS011;2582;48.770;9.190;2022-07-23T07:37:57;7.37;;;6.77;;
5127;SDS011;2582;48.770;9.190;2022-07-23T07:40:23;6.83;;;6.20;;
5127;SDS011;2582;48.770;9.190;2022-07-23T07:42:52;7.40;;;6.80;;
5127;SDS011;2582;48.770;9.190;2022-07-23T07:45:22;7.97;;;7.27;;
5127;SDS011;2582;48.770;9.190;2022-07-23T07:47:49;7.60;;;7.00;;
5127;SDS011;2582;48.770;9.190;2022-07-23T07:50:16;7.33;;;6.73;;
5127;SDS011;2582;48.770;9.190;2022-07-23T07:52:42;7.70;;;7.10;;
5127;SDS011;2582;48.770;9.190;2022-07-23T07:55:08;8.03;;;7.23;;
5127;SDS011;2582;48.770;9.190;2022-07-23T07:57:34;7.43;;;6.83;;
5127;SDS011;2582;48.770;9.190;2022-07-23T08:00:00;8.10;;;7.50;;
5127;SDS011;2582;48.770;9.190;2022-07-23T08:02:26;7.30;;;6.70;;
5127;SDS011;2582;48.770;9.190;2022-07-23T08:04:52;8.20;;;7.50;;
5127;SDS011;2582;48.770;9.190;2022-07-23T08:07:18;7.47;;;6.87;;
5127;SDS011;2582;48.770;9.190;2022-07-23T08:09:43;6.73;;;6.17;;
5127;SDS011;2582;48.770;9.190;2022-07-23T08:12:09;7.70;;;7.10;;
5127;SDS011;2582;48.770;9.190;2022-07-23T08:14:34;7.10;;;6.20;;
5127;SDS011;2582;48.770;9.190;2022-07-23T08:17:00;7.33;;;6.70;;
5127;SDS011;2582;48.770;9.190;2022-07-23T08:19:26;7.10;;;6.50;;
5127;SDS011;2582;48.770;9.190;2022-07-23T08:21:51;7.00;;;6.13;;
5127;SDS011;2582;48.770;9.190;2022-07-23T08:24:17;6.90;;;6.30;;
5127;SDS011;2582;48.770;9.190;2022-07-23T08:26:42;7.00;;;6.40;;
5127;SDS011;2582;48.770;9.190;2022-07-23T08:29:08;11.37;;;10.27;;
5127;SDS011;2582;48.770;9.190;2022-07-23T08:31:34;6.30;;;5.70;;
5127;SDS011;2582;48.770;9.190;2022-07-23T08:34:00;6.60;;;5.97;;
5127;SDS011;2582;48.770;9.190;2022-07-23T08:36:27;7.23;;;6.40;;
5127;SDS011;2582;48.770;9.190;2022-07-23T08:38:54;6.73;;;6.23;;
5127;SDS011;2582;48.770;9.190;2022-07-23T08:41:19;6.83;;;6.33;;
5127;SDS011;2582;48.770;9.190;2022-07-23T08:43:46;6.93;;;6.23;;
5127;SDS011;2582;48.770;9.190;2022-07-23T08:46:11;7.13;;;6.63;;
5127;SDS011;2582;48.770;9.190;2022-07-23T08:48:38;7.10;;;6.50;;
5127;SDS011;2582;48.770;9.190;2022-07-23T08:51:05;6.67;;;6.07;;
5127;SDS011;2582;48.770;9.190;2022-07-23T08:53:32;6.87;;;6.27;;
5127;SDS011;2582;48.770;9.190;2022-07-23T08:56:01;7.17;;;6.53;;
5127;SDS011;2582;48.770;9.190;2022-07-23T08:58:28;7.80;;;7.10;;
5127;SDS011;2582;48.770;9.190;2022-07-23T09:00:55;7.40;;;6.80;;
5127;SDS011;2582;48.770;9.190;2022-07-23T09:03:22;7.27;;;6.77;;
5127;SDS011;2582;48.770;9.190;2022-07-23T09:05:51;6.80;;;6.20;;
5127;SDS011;2582;48.770;9.190;2022-07-23T09:08:20;7.30;;;6.70;;
5127;SDS011;2582;48.770;9.190;2022-07-23T09:10:57;6.50;;;6.00;;
5127;SDS011;2582;48.770;9.190;2022-07-23T09:13:32;6.77;;;6.27;;
5127;SDS011;2582;48.770;9.190;2022-07-23T09:16:11;7.13;;;6.53;;
5127;SDS011;2582;48.770;9.190;2022-07-23T09:18:49;6.27;;;5.73;;
5127;SDS011;2582;48.770;9.190;2022-07-23T09:26:36;8.10;;;6.50;;
5127;SDS011;2582;48.770;9.190;2022-07-23T09:29:07;6.47;;;5.97;;
5127;SDS011;2582;48.770;9.190;2022-07-23T09:31:47;6.30;;;5.80;;
5127;SDS011;2582;48.770;9.190;2022-07-23T09:36:39;6.33;;;5.87;;
5127;SDS011;2582;48.770;9.190;2022-07-23T09:39:05;6.30;;;5.80;;
5127;SDS011;2582;48.770;9.190;2022-07-23T09:41:36;6.37;;;5.87;;
5127;SDS011;2582;48.770;9.190;2022-07-23T09:44:25;6.90;;;6.30;;
5127;SDS011;2582;48.770;9.190;2022-07-23T09:46:52;6.40;;;5.97;;
5127;SDS011;2582;48.770;9.190;2022-07-23T09:49:23;6.07;;;5.60;;
5127;SDS011;2582;48.770;9.190;2022-07-23T09:51:54;7.90;;;7.20;;
5127;SDS011;2582;48.770;9.190;2022-07-23T09:54:23;7.00;;;6.50;;
5127;SDS011;2582;48.770;9.190;2022-07-23T09:57:00;7.00;;;6.33;;
5127;SDS011;2582;48.770;9.190;2022-07-23T09:59:30;11.00;;;6.33;;
5127;SDS011;2582;48.770;9.190;2022-07-23T10:01:58;6.80;;;6.23;;
5127;SDS011;2582;48.770;9.190;2022-07-23T10:04:25;6.50;;;5.90;;
5127;SDS011;2582;48.770;9.190;2022-07-23T10:06:52;6.97;;;6.40;;
5127;SDS011;2582;48.770;9.190;2022-07-23T10:09:27;6.30;;;5.80;;
5127;SDS011;2582;48.770;9.190;2022-07-23T10:11:59;7.10;;;6.43;;
5127;SDS011;2582;48.770;9.190;2022-07-23T10:14:49;7.17;;;6.53;;
5127;SDS011;2582;48.770;9.190;2022-07-23T10:17:16;6.23;;;5.63;;
5127;SDS011;2582;48.770;9.190;2022-07-23T10:19:42;6.30;;;5.87;;
5127;SDS011;2582;48.770;9.190;2022-07-23T10:22:08;7.47;;;6.87;;
5127;SDS011;2582;48.770;9.190;2022-07-23T10:30:41;6.93;;;6.43;;
5127;SDS011;2582;48.770;9.190;2022-07-23T10:33:17;6.43;;;5.83;;
5127;SDS011;2582;48.770;9.190;2022-07-23T10:41:30;6.60;;;6.10;;
5127;SDS011;2582;48.770;9.190;2022-07-23T10:44:11;6.37;;;5.87;;
5127;SDS011;2582;48.770;9.190;2022-07-23T10:46:54;6.07;;;5.47;;
5127;SDS011;2582;48.770;9.190;2022-07-23T10:49:43;5.93;;;5.43;;
5127;SDS011;2582;48.770;9.190;2022-07-23T10:54:54;5.67;;;5.17;;
5127;SDS011;2582;48.770;9.190;2022-07-23T10:57:23;5.70;;;5.30;;
5127;SDS011;2582;48.770;9.190;2022-07-23T11:02:29;6.00;;;5.40;;
5127;SDS011;2582;48.770;9.190;2022-07-23T11:04:58;6.13;;;5.73;;
5127;SDS011;2582;48.770;9.190;2022-07-23T11:07:26;6.80;;;5.97;;
5127;SDS011;2582;48.770;9.190;2022-07-23T11:09:51;6.50;;;6.00;;
5127;SDS011;2582;48.770;9.190;2022-07-23T11:20:19;6.17;;;5.77;;
5127;SDS011;2582;48.770;9.190;2022-07-23T11:22:51;7.10;;;6.50;;
5127;SDS011;2582;48.770;9.190;2022-07-23T11:27:48;6.67;;;5.97;;
5127;SDS011;2582;48.770;9.190;2022-07-23T11:32:53;6.57;;;6.07;;
5127;SDS011;2582;48.770;9.190;2022-07-23T11:35:43;6.50;;;6.00;;
5127;SDS011;2582;48.770;9.190;2022-07-23T11:40:38;6.60;;;6.10;;
5127;SDS011;2582;48.770;9.190;2022-07-23T11:43:05;6.40;;;5.90;;
5127;SDS011;2582;48.770;9.190;2022-07-23T11:48:04;6.20;;;5.67;;
5127;SDS011;2582;48.770;9.190;2022-07-23T11:50:31;6.60;;;6.00;;
5127;SDS011;2582;48.770;9.190;2022-07-23T11:52:57;5.83;;;5.43;;
5127;SDS011;2582;48.770;9.190;2022-07-23T11:55:23;6.40;;;5.80;;
5127;SDS011;2582;48.770;9.190;2022-07-23T11:57:50;6.03;;;5.60;;
5127;SDS011;2582;48.770;9.190;2022-07-23T12:00:20;6.73;;;6.23;;
5127;SDS011;2582;48.770;9.190;2022-07-23T12:02:49;5.93;;;5.43;;
5127;SDS011;2582;48.770;9.190;2022-07-23T12:05:25;6.70;;;6.10;;
5127;SDS011;2582;48.770;9.190;2022-07-23T12:07:52;6.50;;;5.97;;
5127;SDS011;2582;48.770;9.190;2022-07-23T12:10:20;5.90;;;5.50;;
5127;SDS011;2582;48.770;9.190;2022-07-23T12:12:59;6.10;;;5.60;;
5127;SDS011;2582;48.770;9.190;2022-07-23T12:15:30;6.80;;;6.27;;
5127;SDS011;2582;48.770;9.190;2022-07-23T12:18:03;7.13;;;6.37;;
5127;SDS011;2582;48.770;9.190;2022-07-23T12:20:34;6.50;;;6.00;;
5127;SDS011;2582;48.770;9.190;2022-07-23T12:23:05;7.47;;;6.77;;
5127;SDS011;2582;48.770;9.190;2022-07-23T12:28:10;7.03;;;6.43;;
5127;SDS011;2582;48.770;9.190;2022-07-23T12:30:50;7.07;;;6.40;;
5127;SDS011;2582;48.770;9.190;2022-07-23T12:33:23;6.37;;;5.87;;
5127;SDS011;2582;48.770;9.190;2022-07-23T12:35:59;6.73;;;6.03;;
5127;SDS011;2582;48.770;9.190;2022-07-23T12:38:27;6.70;;;6.10;;
5127;SDS011;2582;48.770;9.190;2022-07-23T12:41:00;6.57;;;6.07;;
5127;SDS011;2582;48.770;9.190;2022-07-23T12:43:27;6.10;;;5.70;;
5127;SDS011;2582;48.770;9.190;2022-07-23T12:46:20;6.80;;;6.30;;
5127;SDS011;2582;48.770;9.190;2022-07-23T12:51:24;8.30;;;7.60;;
5127;SDS011;2582;48.770;9.190;2022-07-23T12:53:56;6.93;;;6.43;;
5127;SDS011;2582;48.770;9.190;2022-07-23T12:56:33;7.13;;;6.53;;
5127;SDS011;2582;48.770;9.190;2022-07-23T12:59:06;6.63;;;6.10;;
5127;SDS011;2582;48.770;9.190;2022-07-23T13:06:33;7.53;;;6.90;;
5127;SDS011;2582;48.770;9.190;2022-07-23T13:09:01;7.27;;;6.77;;
5127;SDS011;2582;48.770;9.190;2022-07-23T13:11:28;7.20;;;6.50;;
5127;SDS011;2582;48.770;9.190;2022-07-23T13:13:54;7.33;;;6.83;;
5127;SDS011;2582;48.770;9.190;2022-07-23T13:16:19;7.40;;;6.80;;
5127;SDS011;2582;48.770;9.190;2022-07-23T13:18:45;7.80;;;6.20;;
5127;SDS011;2582;48.770;9.190;2022-07-23T13:21:10;6.67;;;6.10;;
5127;SDS011;2582;48.770;9.190;2022-07-23T13:23:36;6.70;;;6.00;;
5127;SDS011;2582;48.770;9.190;2022-07-23T13:26:02;6.23;;;5.73;;
5127;SDS011;2582;48.770;9.190;2022-07-23T13:28:28;6.00;;;5.60;;
5127;SDS011;2582;48.770;9.190;2022-07-23T13:30:54;6.93;;;6.43;;
5127;SDS011;2582;48.770;9.190;2022-07-23T13:33:20;6.27;;;5.77;;
5127;SDS011;2582;48.770;9.190;2022-07-23T13:35:48;6.63;;;6.13;;
5127;SDS011;2582;48.770;9.190;2022-07-23T13:38:14;6.80;;;6.30;;
5127;SDS011;2582;48.770;9.190;2022-07-23T13:40:40;6.40;;;5.90;;
5127;SDS011;2582;48.770;9.190;2022-07-23T13:43:11;6.70;;;6.10;;
5127;SDS011;2582;48.770;9.190;2022-07-23T13:45:39;6.73;;;6.23;;
5127;SDS011;2582;48.770;9.190;2022-07-23T13:48:07;6.83;;;6.30;;
5127;SDS011;2582;48.770;9.190;2022-07-23T13:50:33;6.83;;;6.23;;
5127;SDS011;2582;48.770;9.190;2022-07-23T13:53:00;6.23;;;5.80;;
5127;SDS011;2582;48.770;9.190;2022-07-23T13:55:27;7.77;;;7.17;;
5127;SDS011;2582;48.770;9.190;2022-07-23T13:57:53;6.27;;;5.80;;
5127;SDS011;2582;48.770;9.190;2022-07-23T14:00:19;6.43;;;5.90;;
5127;SDS011;2582;48.770;9.190;2022-07-23T14:02:45;5.73;;;5.37;;
5127;SDS011;2582;48.770;9.190;2022-07-23T14:05:10;7.90;;;6.50;;
5127;SDS011;2582;48.770;9.190;2022-07-23T14:07:36;7.07;;;6.57;;
5127;SDS011;2582;48.770;9.190;2022-07-23T14:10:03;7.30;;;6.70;;
5127;SDS011;2582;48.770;9.190;2022-07-23T14:12:29;7.43;;;6.80;;
5127;SDS011;2582;48.770;9.190;2022-07-23T14:14:55;7.40;;;6.80;;
5127;SDS011;2582;48.770;9.190;2022-07-23T14:17:21;6.50;;;6.00;;
5127;SDS011;2582;48.770;9.190;2022-07-23T14:19:46;7.50;;;6.90;;
5127;SDS011;2582;48.770;9.190;2022-07-23T14:22:12;6.80;;;6.30;;
5127;SDS011;2582;48.770;9.190;2022-07-23T14:24:38;7.03;;;6.53;;
5127;SDS011;2582;48.770;9.190;2022-07-23T14:27:04;6.97;;;6.47;;
5127;SDS011;2582;48.770;9.190;2022-07-23T14:29:30;6.70;;;6.03;;
5127;SDS011;2582;48.770;9.190;2022-07-23T14:31:56;6.63;;;6.10;;
5127;SDS011;2582;48.770;9.190;2022-07-23T14:34:22;7.20;;;6.70;;
5127;SDS011;2582;48.770;9.190;2022-07-23T14:36:48;6.60;;;6.10;;
5127;SDS011;2582;48.770;9.190;2022-07-23T14:39:14;7.13;;;6.43;;
5127;SDS011;2582;48.770;9.190;2022-07-23T14:41:39;6.93;;;6.33;;
5127;SDS011;2582;48.770;9.190;2022-07-23T14:44:05;6.60;;;6.10;;
5127;SDS011;2582;48.770;9.190;2022-07-23T14:46:31;7.23;;;6.73;;
5127;SDS011;2582;48.770;9.190;2022-07-23T14:48:57;6.80;;;6.30;;
5127;SDS011;2582;48.770;9.190;2022-07-23T14:51:22;7.10;;;6.40;;
5127;SDS011;2582;48.770;9.190;2022-07-23T14:53:48;5.63;;;5.23;;
5127;SDS011;2582;48.770;9.190;2022-07-23T14:56:14;6.30;;;5.80;;
5127;SDS011;2582;48.770;9.190;2022-07-23T14:58:39;6.60;;;6.00;;
5127;SDS011;2582;48.770;9.190;2022-07-23T15:01:05;6.53;;;6.03;;
5127;SDS011;2582;48.770;9.190;2022-07-23T15:03:31;6.80;;;6.30;;
5127;SDS011;2582;48.770;9.190;2022-07-23T15:05:58;7.17;;;6.67;;
5127;SDS011;2582;48.770;9.190;2022-07-23T15:08:24;7.00;;;6.30;;
5127;SDS011;2582;48.770;9.190;2022-07-23T15:10:49;6.00;;;5.50;;
5127;SDS011;2582;48.770;9.190;2022-07-23T15:13:15;6.70;;;6.10;;
5127;SDS011;2582;48.770;9.190;2022-07-23T15:15:41;7.90;;;7.10;;
5127;SDS011;2582;48.770;9.190;2022-07-23T15:18:06;6.37;;;5.90;;
5127;SDS011;2582;48.770;9.190;2022-07-23T15:20:32;6.40;;;6.00;;
5127;SDS011;2582;48.770;9.190;2022-07-23T15:22:58;6.60;;;6.10;;
5127;SDS011;2582;48.770;9.190;2022-07-23T15:25:23;6.13;;;5.73;;
5127;SDS011;2582;48.770;9.190;2022-07-23T15:27:49;7.27;;;6.57;;
5127;SDS011;2582;48.770;9.190;2022-07-23T15:30:15;7.40;;;6.90;;
5127;SDS011;2582;48.770;9.190;2022-07-23T15:32:40;7.43;;;6.73;;
5127;SDS011;2582;48.770;9.190;2022-07-23T15:35:06;6.80;;;6.30;;
5127;SDS011;2582;48.770;9.190;2022-07-23T15:37:33;6.50;;;6.00;;
5127;SDS011;2582;48.770;9.190;2022-07-23T15:39:59;7.13;;;6.53;;
5127;SDS011;2582;48.770;9.190;2022-07-23T15:42:26;6.50;;;6.00;;
5127;SDS011;2582;48.770;9.190;2022-07-23T15:44:52;7.50;;;6.80;;
5127;SDS011;2582;48.770;9.190;2022-07-23T15:47:17;6.80;;;6.30;;
5127;SDS011;2582;48.770;9.190;2022-07-23T15:49:44;6.57;;;6.13;;
5127;SDS011;2582;48.770;9.190;2022-07-23T15:52:10;6.70;;;6.20;;
5127;SDS011;2582;48.770;9.190;2022-07-23T15:54:36;6.57;;;5.97;;
5127;SDS011;2582;48.770;9.190;2022-07-23T15:57:03;7.17;;;6.57;;
5127;SDS011;2582;48.770;9.190;2022-07-23T15:59:29;7.37;;;6.87;;
5127;SDS011;2582;48.770;9.190;2022-07-23T16:01:55;6.60;;;6.10;;
5127;SDS011;2582;48.770;9.190;2022-07-23T16:04:21;7.00;;;6.40;;
5127;SDS011;2582;48.770;9.190;2022-07-23T16:06:47;7.30;;;6.80;;
5127;SDS011;2582;48.770;9.190;2022-07-23T16:09:13;6.83;;;6.30;;